Time;durP1;ratioP1;P1;durP2;ratioP2;P2;SDS_P1;SDS_P2;PMS_P1;PMS_P2;Temp;Humidity;BMP_temperature;BMP_pressure;BME280_temperature;BME280_humidity;BME280_pressure;Samples;Min_cycle;Max_cycle;Signal;HPM_P1;HPM_P2
2023/06/11 00:00:31;;;;;;;164.43;157.30;;;;;;;32.86;26.88;101331.25;4993879;28;20092;-71
2023/06/11 00:02:56;;;;;;;163.43;156.35;;;;;;;32.82;26.88;101336.00;4993391;28;20036;-71
2023/06/11 00:05:27;;;;;;;158.93;151.63;;;;;;;32.80;26.54;101338.38;4993412;28;20394;-71
2023/06/11 00:07:55;;;;;;;163.85;156.57;;;;;;;32.75;26.81;101333.91;4993138;28;20054;-71
2023/06/11 00:10:21;;;;;;;160.13;152.50;;;;;;;32.72;27.00;101329.88;4993867;28;20498;-71
2023/06/11 00:12:46;;;;;;;164.43;157.02;;;;;;;32.68;26.89;101326.22;4993295;28;20102;-71
2023/06/11 00:15:12;;;;;;;160.57;153.52;;;;;;;32.65;26.82;101335.38;4992782;28;20069;-71
2023/06/11 00:17:37;;;;;;;160.45;153.48;;;;;;;32.61;27.03;101328.13;4992461;28;20100;-71
2023/06/11 00:20:09;;;;;;;161.57;154.43;;;;;;;32.58;26.93;101326.09;4992795;28;20533;-72
2023/06/11 00:22:35;;;;;;;159.63;152.57;;;;;;;32.53;27.26;101322.47;4993142;28;20034;-71
2023/06/11 00:25:00;;;;;;;159.93;152.98;;;;;;;32.50;27.43;101316.81;4992765;28;20088;-71
2023/06/11 00:27:25;;;;;;;163.23;155.93;;;;;;;32.48;27.43;101316.34;4993151;28;20120;-71
2023/06/11 00:29:52;;;;;;;156.35;149.52;;;;;;;32.44;27.44;101316.31;5008158;28;20037;-72
2023/06/11 00:32:17;;;;;;;159.23;151.98;;;;;;;32.41;27.38;101319.03;4993043;28;20081;-71
2023/06/11 00:34:43;;;;;;;164.45;157.40;;;;;;;32.37;27.17;101319.00;4993069;28;20030;-71
2023/06/11 00:37:08;;;;;;;160.80;153.82;;;;;;;32.33;27.43;101321.75;4994174;28;20038;-71
2023/06/11 00:39:34;;;;;;;156.77;149.77;;;;;;;32.29;27.46;101309.72;5012401;28;20414;-71
2023/06/11 00:41:59;;;;;;;159.35;152.25;;;;;;;32.26;27.49;101315.25;5011187;28;20060;-71
2023/06/11 00:44:25;;;;;;;156.20;149.18;;;;;;;32.22;27.38;101315.19;5012305;28;20042;-71
2023/06/11 00:46:52;;;;;;;156.45;149.52;;;;;;;32.19;27.51;101324.34;5027303;28;20053;-71
2023/06/11 00:49:18;;;;;;;164.65;157.57;;;;;;;32.16;27.86;101325.09;5011646;28;20029;-71
2023/06/11 00:51:45;;;;;;;153.40;146.55;;;;;;;32.13;27.63;101325.88;5012011;28;20049;-71
2023/06/11 00:54:12;;;;;;;150.73;144.03;;;;;;;32.09;27.99;101316.59;5011851;28;20561;-70
2023/06/11 00:56:41;;;;;;;157.02;150.18;;;;;;;32.06;27.82;101317.38;5011920;28;20038;-71
2023/06/11 00:59:07;;;;;;;155.18;147.75;;;;;;;32.03;27.85;101323.69;5011564;28;20199;-70
2023/06/11 01:01:41;;;;;;;151.80;145.10;;;;;;;31.99;27.92;101317.25;5012078;28;20581;-70
2023/06/11 01:04:17;;;;;;;159.18;152.00;;;;;;;31.95;28.01;101317.19;5011319;28;20038;-70
2023/06/11 01:06:46;;;;;;;154.48;147.18;;;;;;;31.92;28.08;101318.72;5012048;28;20032;-71
2023/06/11 01:09:12;;;;;;;158.32;151.32;;;;;;;31.88;28.04;101320.66;5011403;28;20038;-71
2023/06/11 01:11:38;;;;;;;158.13;150.45;;;;;;;31.85;28.00;101315.81;5011247;28;20050;-70
2023/06/11 01:14:05;;;;;;;152.65;145.65;;;;;;;31.82;27.84;101321.34;5011325;28;20457;-70
2023/06/11 01:16:34;;;;;;;151.23;144.52;;;;;;;31.80;28.13;101320.91;5011734;28;20045;-70
2023/06/11 01:19:18;;;;;;;154.65;147.70;;;;;;;31.76;28.43;101318.06;5011309;28;20458;-71
2023/06/11 01:21:53;;;;;;;150.70;143.88;;;;;;;31.72;28.36;101325.56;5011559;28;20041;-70
2023/06/11 01:24:40;;;;;;;156.98;149.60;;;;;;;31.69;28.18;101320.72;5010584;28;20030;-71
2023/06/11 01:27:17;;;;;;;155.00;148.02;;;;;;;31.64;28.50;101316.25;5010566;28;20030;-71
2023/06/11 01:29:45;;;;;;;145.80;139.20;;;;;;;31.61;28.43;101319.81;5015826;28;20037;-71
2023/06/11 01:32:12;;;;;;;;;;;;;;;31.58;28.62;101316.97;5016178;28;20037;-71
2023/06/11 01:34:41;;;;;;;148.05;141.15;;;;;;;31.53;28.67;101320.06;5015539;28;19920;-70
2023/06/11 01:37:11;;;;;;;149.38;142.48;;;;;;;31.50;28.72;101315.22;5015346;28;20034;-71
2023/06/11 01:39:37;;;;;;;147.95;141.48;;;;;;;31.47;28.77;101322.34;5015083;28;20060;-71
2023/06/11 01:42:03;;;;;;;148.68;141.77;;;;;;;31.43;28.79;101327.06;5014086;28;20029;-71
2023/06/11 01:44:29;;;;;;;145.38;138.82;;;;;;;31.40;28.87;101323.03;5015485;28;20034;-70
2023/06/11 01:46:54;;;;;;;149.77;142.77;;;;;;;31.37;28.67;101326.53;5015498;28;20045;-70
2023/06/11 01:49:19;;;;;;;147.45;140.68;;;;;;;31.34;28.98;101321.69;5014704;28;20037;-71
2023/06/11 01:51:45;;;;;;;149.60;142.77;;;;;;;31.31;28.89;101328.03;5015291;28;20030;-71
2023/06/11 01:54:10;;;;;;;147.57;140.93;;;;;;;31.27;28.92;101322.38;5014630;28;20088;-71
2023/06/11 01:56:36;;;;;;;150.05;143.18;;;;;;;31.25;29.04;101312.75;5014446;28;20080;-70
2023/06/11 01:59:01;;;;;;;150.27;143.23;;;;;;;31.22;29.07;101316.28;4995653;28;20502;-71
2023/06/11 02:01:28;;;;;;;147.27;140.65;;;;;;;31.18;29.05;101321.81;5011105;28;20034;-71
2023/06/11 02:03:55;;;;;;;147.68;141.05;;;;;;;31.15;29.20;101322.56;4995906;28;20058;-70
2023/06/11 02:06:20;;;;;;;147.68;140.82;;;;;;;31.12;29.17;101325.25;4995428;28;20034;-70
2023/06/11 02:08:46;;;;;;;148.10;140.85;;;;;;;31.10;29.18;101330.38;4995902;28;20041;-71
2023/06/11 02:11:11;;;;;;;144.02;137.52;;;;;;;31.07;29.35;101325.56;4995255;28;20041;-71
2023/06/11 02:13:36;;;;;;;146.45;139.75;;;;;;;31.03;29.73;101336.66;4995833;28;20121;-71
2023/06/11 02:16:02;;;;;;;148.82;141.63;;;;;;;31.00;29.40;101334.63;4995604;28;20430;-71
2023/06/11 02:18:27;;;;;;;145.77;138.57;;;;;;;30.96;29.54;101326.16;4995554;28;20126;-71
2023/06/11 02:20:52;;;;;;;145.75;138.90;;;;;;;30.94;29.58;101327.69;4994442;28;20422;-71
2023/06/11 02:23:18;;;;;;;146.95;140.02;;;;;;;30.91;29.71;101334.03;4995052;28;20495;-71
2023/06/11 02:25:43;;;;;;;145.18;138.23;;;;;;;30.88;29.46;101331.97;4994322;28;20517;-71
2023/06/11 02:28:10;;;;;;;147.95;141.25;;;;;;;30.85;29.72;101332.72;4995059;28;20026;-71
2023/06/11 02:30:35;;;;;;;147.65;140.68;;;;;;;30.82;29.62;101328.69;4995376;28;20037;-71
2023/06/11 02:33:01;;;;;;;143.48;136.60;;;;;;;30.78;29.67;101328.56;4995677;28;20383;-71
2023/06/11 02:35:26;;;;;;;140.32;133.85;;;;;;;30.76;29.78;101335.69;4994566;28;20065;-71
2023/06/11 02:37:52;;;;;;;142.05;135.23;;;;;;;30.73;29.75;101330.84;4995202;28;20051;-71
2023/06/11 02:40:17;;;;;;;142.82;136.07;;;;;;;30.69;29.76;101335.50;4993285;28;20117;-71
2023/06/11 02:42:42;;;;;;;146.82;140.02;;;;;;;30.67;29.69;101332.28;4995270;28;20042;-71
2023/06/11 02:45:08;;;;;;;142.98;136.27;;;;;;;30.63;29.76;101335.81;4994567;28;20173;-71
2023/06/11 02:47:33;;;;;;;141.55;134.82;;;;;;;30.59;29.75;101331.31;4995232;28;20073;-71
2023/06/11 02:49:59;;;;;;;143.40;136.70;;;;;;;30.56;29.96;101337.63;4993944;28;20505;-71
2023/06/11 02:52:24;;;;;;;144.07;137.23;;;;;;;30.54;29.76;101334.41;4994318;28;20047;-71
2023/06/11 02:54:50;;;;;;;139.70;132.82;;;;;;;30.51;29.97;101340.72;4994832;28;20041;-71
2023/06/11 02:57:15;;;;;;;142.02;135.32;;;;;;;30.47;29.98;101335.06;4994716;28;20356;-71
2023/06/11 02:59:41;;;;;;;136.63;130.45;;;;;;;30.45;30.45;101331.03;4995018;28;20089;-71
2023/06/11 03:02:06;;;;;;;140.48;134.05;;;;;;;30.41;30.23;101337.31;4994685;28;20387;-72
2023/06/11 03:04:31;;;;;;;140.48;133.52;;;;;;;30.39;30.13;101333.28;4995015;28;20394;-71
2023/06/11 03:06:57;;;;;;;137.63;131.35;;;;;;;30.35;30.21;101330.41;4994583;28;20386;-71
2023/06/11 03:09:24;;;;;;;139.25;132.75;;;;;;;30.31;30.21;101332.31;4993938;28;20081;-71
2023/06/11 03:11:50;;;;;;;138.98;132.38;;;;;;;30.29;30.36;101331.06;4994752;28;20038;-71
2023/06/11 03:14:16;;;;;;;142.73;135.95;;;;;;;30.26;30.37;101334.56;4994458;28;20411;-71
2023/06/11 03:16:41;;;;;;;136.95;130.15;;;;;;;30.24;30.38;101334.09;4994819;28;20084;-71
2023/06/11 03:19:07;;;;;;;134.10;127.75;;;;;;;30.20;30.50;101334.03;4994508;28;20458;-71
2023/06/11 03:21:32;;;;;;;136.27;129.93;;;;;;;30.17;30.83;101334.75;4996927;28;20551;-71
2023/06/11 03:23:58;;;;;;;134.23;127.78;;;;;;;30.14;30.68;101336.28;4994414;28;20035;-71
2023/06/11 03:26:24;;;;;;;136.95;130.50;;;;;;;30.10;30.73;101332.59;4993872;28;20383;-71
2023/06/11 03:28:49;;;;;;;132.75;126.25;;;;;;;30.08;30.68;101336.91;5014167;28;20497;-71
2023/06/11 03:31:15;;;;;;;140.57;133.75;;;;;;;30.04;30.81;101328.47;5012437;28;20034;-71
2023/06/11 03:33:40;;;;;;;135.07;128.70;;;;;;;30.02;30.67;101338.38;5014046;28;20034;-71
2023/06/11 03:36:06;;;;;;;137.98;131.57;;;;;;;29.98;30.72;101344.66;5013176;28;20033;-71
2023/06/11 03:38:31;;;;;;;132.60;126.15;;;;;;;29.96;30.66;101337.81;5012745;28;20555;-71
2023/06/11 03:40:57;;;;;;;136.88;130.60;;;;;;;29.92;30.64;101343.31;5013345;28;20087;-71
2023/06/11 03:43:22;;;;;;;137.55;130.93;;;;;;;29.88;30.65;101339.63;5011937;28;20367;-71
2023/06/11 03:45:47;;;;;;;135.02;128.57;;;;;;;29.85;30.81;101340.34;5013907;28;20497;-71
2023/06/11 03:48:13;;;;;;;139.43;132.90;;;;;;;29.83;30.88;101331.53;5011859;28;20034;-71
2023/06/11 03:50:38;;;;;;;135.27;128.88;;;;;;;29.81;30.74;101347.00;5013299;28;20060;-71
2023/06/11 03:53:03;;;;;;;132.25;126.10;;;;;;;29.76;30.74;101340.53;5012678;28;20126;-71
2023/06/11 03:55:29;;;;;;;137.95;131.35;;;;;;;29.74;30.82;101348.44;5027996;28;20030;-71
2023/06/11 03:57:55;;;;;;;137.02;130.57;;;;;;;29.71;30.87;101342.75;5012949;28;20467;-71
2023/06/11 04:00:20;;;;;;;134.27;127.78;;;;;;;29.68;30.99;101346.28;5012158;28;20463;-71
2023/06/11 04:02:46;;;;;;;137.93;131.43;;;;;;;29.65;31.22;101352.53;5012984;28;20466;-71
2023/06/11 04:05:11;;;;;;;134.43;128.13;;;;;;;29.61;31.24;101352.47;5012610;28;20470;-71
2023/06/11 04:07:39;;;;;;;133.57;127.32;;;;;;;29.59;31.16;101345.63;5012845;28;20475;-71
2023/06/11 04:10:06;;;;;;;133.40;126.70;;;;;;;29.57;31.27;101350.75;5012738;28;20041;-71
2023/06/11 04:12:32;;;;;;;132.53;126.03;;;;;;;29.53;31.06;101350.63;5011802;28;20033;-71
2023/06/11 04:14:57;;;;;;;133.75;127.28;;;;;;;29.50;31.21;101352.16;5012759;28;20037;-71
2023/06/11 04:17:22;;;;;;;139.43;132.82;;;;;;;29.47;31.39;101350.09;5026938;28;20034;-71
2023/06/11 04:19:48;;;;;;;130.57;124.00;;;;;;;29.44;31.46;101352.78;5012538;28;20475;-71
2023/06/11 04:22:13;;;;;;;134.77;128.13;;;;;;;29.41;31.55;101357.09;5011327;28;20236;-71
2023/06/11 04:24:38;;;;;;;142.75;135.52;;;;;;;29.39;31.48;101353.06;5012717;28;20134;-71
2023/06/11 04:27:06;;;;;;;132.52;126.38;;;;;;;29.34;31.39;101357.69;5006659;28;20030;-71
2023/06/11 04:29:33;;;;;;;130.32;123.28;;;;;;;29.32;31.38;101359.22;4997217;28;20042;-71
2023/06/11 04:32:01;;;;;;;128.82;122.57;;;;;;;29.29;31.43;101357.16;5012279;28;20045;-71
2023/06/11 04:34:29;;;;;;;132.75;126.30;;;;;;;29.27;31.47;101356.69;5012470;28;20038;-71
2023/06/11 04:36:55;;;;;;;133.40;126.85;;;;;;;29.23;31.83;101356.63;5011522;28;20038;-71
2023/06/11 04:39:22;;;;;;;130.90;124.13;;;;;;;29.20;31.97;101346.16;5012194;28;20060;-71
2023/06/11 04:41:47;;;;;;;130.68;123.72;;;;;;;29.18;32.01;101354.09;5012105;28;20090;-71
2023/06/11 04:44:13;;;;;;;129.13;122.78;;;;;;;29.16;32.14;101356.41;5012232;28;20112;-71
2023/06/11 04:46:39;;;;;;;128.60;121.93;;;;;;;29.13;31.71;101351.53;5011548;28;20028;-71
2023/06/11 04:49:06;;;;;;;138.57;132.10;;;;;;;29.09;32.21;101348.66;5012172;28;20040;-71
2023/06/11 04:51:40;;;;;;;132.52;125.63;;;;;;;29.07;31.83;101348.19;5011026;28;20042;-71
2023/06/11 04:54:07;;;;;;;130.43;124.20;;;;;;;29.04;32.25;101343.31;5011747;28;20513;-71
2023/06/11 04:56:33;;;;;;;127.32;121.32;;;;;;;29.01;32.34;101355.16;5010723;28;20040;-72
2023/06/11 04:59:01;;;;;;;128.38;122.15;;;;;;;28.99;32.35;101353.91;5010730;28;20072;-72
2023/06/11 05:01:32;;;;;;;130.55;124.18;;;;;;;28.96;32.18;101352.63;5012457;28;20069;-72
2023/06/11 05:03:57;;;;;;;126.93;121.00;;;;;;;28.94;32.45;101356.94;4991844;28;20471;-72
2023/06/11 05:06:23;;;;;;;130.70;124.40;;;;;;;28.91;32.33;101356.47;4992383;28;20034;-72
2023/06/11 05:08:50;;;;;;;130.77;124.38;;;;;;;28.89;32.72;101360.78;4992784;28;20049;-72
2023/06/11 05:11:16;;;;;;;129.48;122.78;;;;;;;28.87;32.58;101363.88;5005616;28;20030;-72
2023/06/11 05:13:41;;;;;;;128.88;122.78;;;;;;;28.84;32.40;101363.78;5011577;28;20371;-70
2023/06/11 05:16:08;;;;;;;127.18;120.38;;;;;;;28.83;32.78;101360.22;5011078;28;20033;-70
2023/06/11 05:18:33;;;;;;;131.05;124.65;;;;;;;28.80;32.90;101363.69;5010705;28;20026;-70
2023/06/11 05:20:59;;;;;;;130.45;123.88;;;;;;;28.78;32.79;101366.03;5011026;28;20402;-70
2023/06/11 05:23:29;;;;;;;132.13;125.32;;;;;;;28.76;33.01;101365.56;5011586;28;20036;-71
2023/06/11 05:25:58;;;;;;;130.20;123.32;;;;;;;28.74;33.16;101367.88;5009615;28;20050;-71
2023/06/11 05:28:24;;;;;;;133.55;126.97;;;;;;;28.74;32.94;101364.28;5025663;28;20034;-71
2023/06/11 05:30:49;;;;;;;130.45;123.95;;;;;;;28.70;33.12;101364.16;5011682;28;20544;-71
2023/06/11 05:33:16;;;;;;;130.55;124.05;;;;;;;28.68;33.06;101364.53;5011242;28;20038;-70
2023/06/11 05:35:43;;;;;;;128.45;122.05;;;;;;;28.67;33.21;101360.13;5011367;28;20064;-70
2023/06/11 05:38:09;;;;;;;130.38;123.88;;;;;;;28.66;33.42;101366.84;5011428;28;20509;-70
2023/06/11 05:40:36;;;;;;;129.45;123.05;;;;;;;28.64;33.26;101366.38;5009864;28;20034;-71
2023/06/11 05:43:02;;;;;;;129.35;122.45;;;;;;;28.64;33.57;101368.38;5011617;28;20061;-71
2023/06/11 05:45:30;;;;;;;128.93;122.43;;;;;;;28.63;33.58;101372.31;5011113;28;20100;-71
2023/06/11 05:47:56;;;;;;;;;;;;;;;28.61;33.30;101369.88;5011682;28;20390;-71
2023/06/11 05:50:21;;;;;;;126.45;119.82;;;;;;;28.60;33.39;101361.88;5011512;28;19921;-70
2023/06/11 05:52:48;;;;;;;127.97;121.38;;;;;;;28.58;33.77;101369.78;5011093;28;20033;-71
2023/06/11 05:55:13;;;;;;;134.30;127.15;;;;;;;28.57;33.69;101373.69;5010481;28;20037;-71
2023/06/11 05:57:39;;;;;;;129.50;122.93;;;;;;;28.57;33.94;101373.69;5010381;28;20038;-71
2023/06/11 06:00:06;;;;;;;130.13;123.57;;;;;;;28.57;33.54;101373.69;5011309;28;20553;-71
2023/06/11 06:02:32;;;;;;;130.13;123.60;;;;;;;28.57;33.77;101376.47;5010872;28;20038;-71
2023/06/11 06:04:57;;;;;;;126.50;120.38;;;;;;;28.56;33.48;101377.66;5010968;28;20455;-71
2023/06/11 06:07:23;;;;;;;129.63;123.05;;;;;;;28.56;33.65;101383.22;5001372;28;20034;-71
2023/06/11 06:09:49;;;;;;;131.65;124.93;;;;;;;28.56;34.00;101375.69;4992540;28;20037;-70
2023/06/11 06:12:14;;;;;;;124.45;118.50;;;;;;;28.57;34.05;101377.28;4991907;28;20047;-70
2023/06/11 06:14:40;;;;;;;127.38;120.90;;;;;;;28.58;34.13;101375.34;4992788;28;20129;-70
2023/06/11 06:17:05;;;;;;;124.20;117.90;;;;;;;28.58;34.26;101384.47;4995496;28;20033;-70
2023/06/11 06:19:31;;;;;;;124.85;118.32;;;;;;;28.58;33.95;101384.47;4995410;28;20034;-71
2023/06/11 06:21:56;;;;;;;123.75;117.55;;;;;;;28.57;34.09;101380.06;4995719;28;20034;-71
2023/06/11 06:24:21;;;;;;;128.70;122.25;;;;;;;28.58;34.10;101387.25;4995935;28;20490;-70
2023/06/11 06:26:55;;;;;;;125.38;119.47;;;;;;;28.59;34.32;101385.28;4994949;28;20364;-71
2023/06/11 06:29:20;;;;;;;128.25;121.43;;;;;;;28.60;34.15;101381.34;4995256;28;20042;-70
2023/06/11 06:31:45;;;;;;;126.65;120.15;;;;;;;28.61;34.11;101388.53;4995210;28;20351;-70
2023/06/11 06:34:12;;;;;;;127.05;120.85;;;;;;;28.62;34.38;101384.56;4995140;28;20072;-71
2023/06/11 06:36:37;;;;;;;127.68;121.68;;;;;;;28.63;34.26;101384.25;4994820;28;20065;-71
2023/06/11 06:39:03;;;;;;;127.70;121.38;;;;;;;28.64;33.93;101387.81;4995387;28;20506;-70
2023/06/11 06:41:29;;;;;;;123.85;117.78;;;;;;;28.65;34.24;101381.09;4994953;28;20451;-71
2023/06/11 06:43:54;;;;;;;120.50;114.35;;;;;;;28.66;34.10;101377.16;4995459;28;20038;-71
2023/06/11 06:46:19;;;;;;;121.88;115.93;;;;;;;28.66;34.20;101377.97;5010132;28;20053;-71
2023/06/11 06:48:45;;;;;;;123.93;117.03;;;;;;;28.68;34.56;101383.19;4994662;28;20144;-71
2023/06/11 06:51:10;;;;;;;126.30;119.63;;;;;;;28.70;34.43;101375.28;4995205;28;20363;-70
2023/06/11 06:53:36;;;;;;;125.38;119.50;;;;;;;28.71;34.49;101374.16;4994725;28;20030;-70
2023/06/11 06:56:04;;;;;;;130.93;124.55;;;;;;;28.74;34.25;101383.75;4993732;28;20035;-70
2023/06/11 06:58:29;;;;;;;126.85;120.80;;;;;;;28.76;34.41;101378.66;4994407;28;20045;-71
2023/06/11 07:00:55;;;;;;;127.10;121.20;;;;;;;28.77;34.79;101383.03;4994254;28;20038;-70
2023/06/11 07:03:21;;;;;;;122.82;117.10;;;;;;;28.79;34.48;101381.53;4995395;28;20030;-71
2023/06/11 07:05:47;;;;;;;123.43;117.63;;;;;;;28.81;34.34;101383.97;4994299;28;20103;-71
2023/06/11 07:08:13;;;;;;;121.38;115.57;;;;;;;28.82;34.29;101383.59;4994707;28;20043;-71
2023/06/11 07:10:48;;;;;;;130.02;123.38;;;;;;;28.85;34.51;101391.25;4994534;28;20038;-71
2023/06/11 07:13:13;;;;;;;122.32;116.63;;;;;;;28.87;34.53;101388.91;4994168;28;20463;-71
2023/06/11 07:15:38;;;;;;;127.38;121.53;;;;;;;28.90;34.39;101384.63;4994420;28;20038;-71
2023/06/11 07:18:04;;;;;;;127.57;121.38;;;;;;;28.93;34.58;101386.72;4994365;28;20034;-70
2023/06/11 07:20:30;;;;;;;126.15;120.22;;;;;;;28.95;34.50;101392.72;4994776;28;20042;-71
2023/06/11 07:22:55;;;;;;;126.25;120.13;;;;;;;28.98;34.70;101386.47;4994534;28;20037;-71
2023/06/11 07:25:21;;;;;;;126.45;120.63;;;;;;;29.02;34.63;101389.34;4994533;28;20106;-71
2023/06/11 07:27:46;;;;;;;127.88;121.97;;;;;;;29.04;34.45;101392.59;4993281;28;20114;-71
2023/06/11 07:30:12;;;;;;;126.53;120.45;;;;;;;29.07;35.00;101394.69;4994078;28;20471;-71
2023/06/11 07:32:37;;;;;;;126.95;120.78;;;;;;;29.11;34.75;101387.25;4993850;28;20042;-71
2023/06/11 07:35:04;;;;;;;123.38;117.65;;;;;;;29.14;34.84;101396.88;4992989;28;20383;-71
2023/06/11 07:37:31;;;;;;;125.43;119.63;;;;;;;29.18;34.79;101394.97;4994140;28;20045;-71
2023/06/11 07:39:56;;;;;;;128.75;122.75;;;;;;;29.21;34.70;101392.31;4993699;28;20058;-71
2023/06/11 07:42:22;;;;;;;124.90;119.10;;;;;;;29.25;34.73;101392.41;4994464;28;20042;-71
2023/06/11 07:44:47;;;;;;;130.02;124.03;;;;;;;29.29;34.89;101382.19;4993761;28;20030;-71
2023/06/11 07:47:13;;;;;;;129.80;123.80;;;;;;;29.33;34.84;101385.88;4994096;28;20089;-71
2023/06/11 07:49:38;;;;;;;129.23;123.13;;;;;;;29.37;34.82;101391.56;5005652;28;20116;-71
2023/06/11 07:52:04;;;;;;;127.90;121.72;;;;;;;29.41;34.68;101381.31;5013430;28;20092;-71
2023/06/11 07:54:30;;;;;;;133.07;126.93;;;;;;;29.46;34.89;101383.84;5013448;28;20113;-70
2023/06/11 07:56:56;;;;;;;132.02;126.03;;;;;;;29.49;34.36;101381.16;5012625;28;20133;-71
2023/06/11 07:59:21;;;;;;;128.95;122.85;;;;;;;29.55;34.75;101376.94;5012910;28;20036;-71
2023/06/11 08:01:46;;;;;;;136.82;130.55;;;;;;;29.60;34.50;101378.66;5012592;28;20056;-71
2023/06/11 08:04:12;;;;;;;131.63;125.15;;;;;;;29.65;34.74;101385.94;5013345;28;20070;-71
2023/06/11 08:06:37;;;;;;;132.90;126.90;;;;;;;29.71;34.68;101382.59;5010466;28;20034;-72
2023/06/11 08:09:03;;;;;;;132.77;126.38;;;;;;;29.77;34.58;101380.34;5011705;28;20030;-71
2023/06/11 08:11:29;;;;;;;134.40;127.88;;;;;;;29.83;34.75;101383.66;5012975;28;20033;-71
2023/06/11 08:13:54;;;;;;;136.55;130.15;;;;;;;29.88;34.89;101381.41;5012090;28;20030;-71
2023/06/11 08:16:20;;;;;;;136.80;130.68;;;;;;;29.94;34.65;101379.97;5012014;28;20033;-71
2023/06/11 08:18:45;;;;;;;141.50;133.93;;;;;;;30.00;34.75;101376.91;5010932;28;20030;-71
2023/06/11 08:21:10;;;;;;;140.60;134.02;;;;;;;30.07;34.59;101385.47;5013243;28;20038;-71
2023/06/11 08:23:38;;;;;;;135.00;128.77;;;;;;;30.13;34.55;101378.44;5010343;28;20483;-72
2023/06/11 08:26:04;;;;;;;137.80;131.40;;;;;;;30.18;34.32;101384.53;5012994;28;20045;-71
2023/06/11 08:28:30;;;;;;;137.95;131.25;;;;;;;30.25;34.24;101377.56;4993634;28;20402;-71
2023/06/11 08:30:56;;;;;;;142.50;135.50;;;;;;;30.31;34.41;101374.09;4992450;28;20030;-72
2023/06/11 08:33:22;;;;;;;138.52;132.20;;;;;;;30.38;34.17;101371.50;4993152;28;20022;-72
2023/06/11 08:35:47;;;;;;;140.48;133.90;;;;;;;30.46;34.32;101374.44;4992929;28;20045;-71
2023/06/11 08:38:13;;;;;;;140.38;133.98;;;;;;;30.54;34.46;101379.00;4992593;28;20058;-71
2023/06/11 08:40:40;;;;;;;143.88;137.38;;;;;;;30.59;33.97;101370.34;4991398;28;20493;-71
2023/06/11 08:43:10;;;;;;;142.32;135.95;;;;;;;30.67;34.03;101368.53;4993222;28;20026;-71
2023/06/11 08:45:36;;;;;;;145.82;139.25;;;;;;;30.74;34.01;101365.91;4992867;28;20073;-71
2023/06/11 08:48:03;;;;;;;141.50;135.07;;;;;;;30.81;33.98;101368.84;4992323;28;20053;-71
2023/06/11 08:50:31;;;;;;;145.90;139.35;;;;;;;30.89;33.80;101365.06;4993046;28;20030;-71
2023/06/11 08:53:00;;;;;;;141.32;134.85;;;;;;;30.96;33.83;101356.84;4992470;28;20030;-71
2023/06/11 08:55:26;;;;;;;149.13;142.25;;;;;;;31.04;33.41;101358.59;4992885;28;20030;-71
2023/06/11 08:57:51;;;;;;;146.93;139.95;;;;;;;31.12;33.36;101356.78;4992546;28;20486;-72
2023/06/11 09:00:18;;;;;;;146.57;139.93;;;;;;;31.19;33.34;101364.47;4992687;28;20455;-72
2023/06/11 09:02:43;;;;;;;145.00;138.40;;;;;;;31.27;33.20;101367.03;4992265;28;20112;-73
2023/06/11 09:05:11;;;;;;;151.00;143.55;;;;;;;31.35;33.14;101362.41;4992880;28;20030;-73
2023/06/11 09:07:37;;;;;;;147.30;140.60;;;;;;;31.43;33.21;101357.78;5006200;28;20034;-72
2023/06/11 09:10:09;;;;;;;157.40;150.13;;;;;;;31.51;32.98;101359.53;5010646;28;20096;-72
2023/06/11 09:12:36;;;;;;;150.80;144.18;;;;;;;31.59;33.11;101357.66;5011835;28;20026;-72
2023/06/11 09:15:04;;;;;;;152.95;146.15;;;;;;;31.67;33.18;101353.81;5010698;28;20038;-71
2023/06/11 09:17:36;;;;;;;153.55;146.65;;;;;;;31.75;33.13;101358.34;4992643;28;20065;-71
2023/06/11 09:20:07;;;;;;;148.63;142.05;;;;;;;31.83;33.06;101351.72;4991750;28;20034;-71
2023/06/11 09:22:35;;;;;;;153.20;146.23;;;;;;;31.90;32.62;101351.81;4992504;28;20057;-71
2023/06/11 09:25:17;;;;;;;155.80;149.05;;;;;;;32.00;32.76;101352.38;4991918;28;20497;-72
2023/06/11 09:27:48;;;;;;;155.32;148.65;;;;;;;32.08;32.53;101349.34;4991777;28;20157;-72
2023/06/11 09:30:16;;;;;;;159.95;152.68;;;;;;;32.15;32.75;101351.44;4996469;28;20511;-71
2023/06/11 09:32:45;;;;;;;161.52;154.32;;;;;;;32.25;32.44;101341.59;5011282;28;20034;-72
2023/06/11 09:35:13;;;;;;;159.55;152.55;;;;;;;32.33;32.44;101346.94;5011311;28;20083;-72
2023/06/11 09:37:51;;;;;;;154.40;147.68;;;;;;;32.42;32.83;101349.44;5011293;28;20037;-72
2023/06/11 09:40:18;;;;;;;159.68;152.57;;;;;;;32.51;32.12;101355.59;5011329;28;20068;-72
2023/06/11 09:42:45;;;;;;;160.80;153.75;;;;;;;32.61;31.80;101350.50;5011155;28;20109;-72
2023/06/11 09:45:16;;;;;;;160.52;153.32;;;;;;;32.69;31.80;101355.03;5011453;28;20034;-72
2023/06/11 09:47:43;;;;;;;160.93;153.77;;;;;;;32.78;31.79;101352.72;5011503;28;20069;-71
2023/06/11 09:50:12;;;;;;;169.25;162.02;;;;;;;32.86;31.52;101351.66;5013715;28;20034;-71
2023/06/11 09:52:38;;;;;;;;;;;;;;;32.94;32.13;101346.94;5015789;28;20095;-72
2023/06/11 09:55:06;;;;;;;161.75;154.55;;;;;;;33.03;31.99;101357.84;5014264;28;19924;-71
2023/06/11 09:57:32;;;;;;;163.48;156.48;;;;;;;33.10;31.98;101350.34;5015206;28;20349;-72
2023/06/11 09:59:58;;;;;;;164.95;157.60;;;;;;;33.18;31.46;101354.03;5014157;28;20088;-72
2023/06/11 10:02:23;;;;;;;165.55;158.45;;;;;;;33.26;31.48;101352.91;5029378;28;20445;-72
2023/06/11 10:04:49;;;;;;;167.10;160.05;;;;;;;33.35;31.47;101347.81;5013623;28;20080;-72
2023/06/11 10:07:16;;;;;;;166.88;159.77;;;;;;;33.45;31.27;101351.13;5014458;28;20030;-72
2023/06/11 10:09:44;;;;;;;169.63;162.32;;;;;;;33.52;31.54;101354.78;5015188;28;20041;-72
2023/06/11 10:12:10;;;;;;;167.32;160.23;;;;;;;33.61;31.59;101354.50;5014266;28;20030;-72
2023/06/11 10:14:37;;;;;;;171.73;164.30;;;;;;;33.70;31.65;101356.97;5015114;28;20066;-72
2023/06/11 10:17:07;;;;;;;174.75;167.25;;;;;;;33.78;30.73;101353.03;5014487;28;20065;-72
2023/06/11 10:19:36;;;;;;;163.93;156.82;;;;;;;33.87;30.20;101356.34;5014791;28;20532;-72
2023/06/11 10:22:02;;;;;;;171.05;163.45;;;;;;;33.94;30.28;101347.94;5013787;28;20044;-72
2023/06/11 10:24:28;;;;;;;173.00;165.65;;;;;;;34.04;29.89;101352.03;5014410;28;20112;-72
2023/06/11 10:27:13;;;;;;;174.55;167.15;;;;;;;34.12;29.57;101348.13;5013434;28;20034;-72
2023/06/11 10:29:47;;;;;;;173.05;165.10;;;;;;;34.21;29.65;101345.78;5005225;28;20442;-71
2023/06/11 10:32:19;;;;;;;176.95;169.35;;;;;;;34.30;28.95;101356.66;4993550;28;20038;-71
2023/06/11 10:34:48;;;;;;;173.80;166.48;;;;;;;34.38;30.10;101354.72;4995568;28;20081;-72
2023/06/11 10:37:14;;;;;;;177.18;169.38;;;;;;;34.44;30.63;101347.50;4995171;28;20030;-72
2023/06/11 10:39:51;;;;;;;172.25;165.10;;;;;;;34.52;30.59;101351.97;4995098;28;20055;-72
2023/06/11 10:42:38;;;;;;;178.98;171.45;;;;;;;34.60;30.25;101355.63;4995266;28;20467;-72
2023/06/11 10:45:08;;;;;;;;;;;;;;;34.68;29.56;101357.31;4995133;28;20030;-72
2023/06/11 10:47:43;;;;;;;175.38;167.93;;;;;;;34.75;28.85;101348.09;5010365;28;19964;-72
2023/06/11 10:50:11;;;;;;;185.25;177.48;;;;;;;34.82;28.77;101348.13;4994756;28;20042;-72
2023/06/11 10:52:50;;;;;;;178.45;170.95;;;;;;;34.92;28.96;101352.16;4995016;28;20026;-72